sensor_id;sensor_type;location;lat;lon;timestamp;P1;durP1;ratioP1;P2;durP2;ratioP2
65230;SDS011;51813;40.666;16.602;2024-02-26T00:01:26;2.53;;;1.27;;
65230;SDS011;51813;40.666;16.602;2024-02-26T00:03:52;2.60;;;1.40;;
65230;SDS011;51813;40.666;16.602;2024-02-26T00:06:19;3.08;;;1.60;;
65230;SDS011;51813;40.666;16.602;2024-02-26T00:08:45;2.33;;;1.20;;
65230;SDS011;51813;40.666;16.602;2024-02-26T00:11:10;2.70;;;1.52;;
65230;SDS011;51813;40.666;16.602;2024-02-26T00:13:36;2.78;;;1.38;;
65230;SDS011;51813;40.666;16.602;2024-02-26T00:16:02;2.15;;;1.10;;
65230;SDS011;51813;40.666;16.602;2024-02-26T00:18:32;2.22;;;1.35;;
65230;SDS011;51813;40.666;16.602;2024-02-26T00:20:58;2.65;;;1.50;;
65230;SDS011;51813;40.666;16.602;2024-02-26T00:23:24;2.40;;;1.20;;
65230;SDS011;51813;40.666;16.602;2024-02-26T00:25:49;2.50;;;1.30;;
65230;SDS011;51813;40.666;16.602;2024-02-26T00:28:15;2.50;;;1.30;;
65230;SDS011;51813;40.666;16.602;2024-02-26T00:30:41;2.55;;;1.27;;
65230;SDS011;51813;40.666;16.602;2024-02-26T00:33:06;2.40;;;1.40;;
65230;SDS011;51813;40.666;16.602;2024-02-26T00:35:32;2.42;;;1.20;;
65230;SDS011;51813;40.666;16.602;2024-02-26T00:37:57;1.90;;;1.00;;
65230;SDS011;51813;40.666;16.602;2024-02-26T00:40:23;2.15;;;1.17;;
65230;SDS011;51813;40.666;16.602;2024-02-26T00:42:49;2.38;;;1.20;;
65230;SDS011;51813;40.666;16.602;2024-02-26T00:45:15;2.45;;;1.50;;
65230;SDS011;51813;40.666;16.602;2024-02-26T00:47:41;2.08;;;1.20;;
65230;SDS011;51813;40.666;16.602;2024-02-26T00:50:07;1.92;;;0.90;;
65230;SDS011;51813;40.666;16.602;2024-02-26T00:52:34;1.90;;;1.20;;
65230;SDS011;51813;40.666;16.602;2024-02-26T00:54:59;1.92;;;1.02;;
65230;SDS011;51813;40.666;16.602;2024-02-26T00:57:25;2.03;;;1.10;;
65230;SDS011;51813;40.666;16.602;2024-02-26T00:59:51;1.80;;;1.00;;
65230;SDS011;51813;40.666;16.602;2024-02-26T01:02:16;1.33;;;0.88;;
65230;SDS011;51813;40.666;16.602;2024-02-26T01:04:42;1.50;;;0.75;;
65230;SDS011;51813;40.666;16.602;2024-02-26T01:07:08;2.08;;;1.20;;
65230;SDS011;51813;40.666;16.602;2024-02-26T01:09:34;2.13;;;1.10;;
65230;SDS011;51813;40.666;16.602;2024-02-26T01:12:00;2.25;;;1.50;;
65230;SDS011;51813;40.666;16.602;2024-02-26T01:14:27;2.22;;;1.40;;
65230;SDS011;51813;40.666;16.602;2024-02-26T01:16:53;1.75;;;0.90;;
65230;SDS011;51813;40.666;16.602;2024-02-26T01:19:19;2.17;;;1.08;;
65230;SDS011;51813;40.666;16.602;2024-02-26T01:21:44;1.70;;;1.00;;
65230;SDS011;51813;40.666;16.602;2024-02-26T01:24:10;2.17;;;1.00;;
65230;SDS011;51813;40.666;16.602;2024-02-26T01:26:36;1.65;;;0.95;;
65230;SDS011;51813;40.666;16.602;2024-02-26T01:29:01;1.30;;;0.70;;
65230;SDS011;51813;40.666;16.602;2024-02-26T01:31:27;1.55;;;0.85;;
65230;SDS011;51813;40.666;16.602;2024-02-26T01:33:53;1.60;;;0.85;;
65230;SDS011;51813;40.666;16.602;2024-02-26T01:36:19;1.55;;;0.90;;
65230;SDS011;51813;40.666;16.602;2024-02-26T01:38:45;1.60;;;0.90;;
65230;SDS011;51813;40.666;16.602;2024-02-26T01:41:10;1.95;;;1.05;;
65230;SDS011;51813;40.666;16.602;2024-02-26T01:43:36;1.35;;;0.70;;
65230;SDS011;51813;40.666;16.602;2024-02-26T01:46:02;1.60;;;0.90;;
65230;SDS011;51813;40.666;16.602;2024-02-26T01:48:28;2.35;;;1.02;;
65230;SDS011;51813;40.666;16.602;2024-02-26T01:50:54;2.13;;;0.98;;
65230;SDS011;51813;40.666;16.602;2024-02-26T01:53:20;2.10;;;1.00;;
65230;SDS011;51813;40.666;16.602;2024-02-26T01:55:46;1.38;;;0.80;;
65230;SDS011;51813;40.666;16.602;2024-02-26T01:58:12;1.63;;;0.90;;
65230;SDS011;51813;40.666;16.602;2024-02-26T02:00:38;1.38;;;0.73;;
65230;SDS011;51813;40.666;16.602;2024-02-26T02:03:04;2.50;;;1.20;;
65230;SDS011;51813;40.666;16.602;2024-02-26T02:05:31;2.50;;;1.30;;
65230;SDS011;51813;40.666;16.602;2024-02-26T02:07:57;3.47;;;1.35;;
65230;SDS011;51813;40.666;16.602;2024-02-26T02:10:24;1.98;;;1.20;;
65230;SDS011;51813;40.666;16.602;2024-02-26T02:12:51;2.03;;;1.02;;
65230;SDS011;51813;40.666;16.602;2024-02-26T02:15:17;2.22;;;1.17;;
65230;SDS011;51813;40.666;16.602;2024-02-26T02:17:43;1.77;;;1.00;;
65230;SDS011;51813;40.666;16.602;2024-02-26T02:20:09;1.83;;;0.88;;
65230;SDS011;51813;40.666;16.602;2024-02-26T02:22:40;2.80;;;1.38;;
65230;SDS011;51813;40.666;16.602;2024-02-26T02:25:06;1.73;;;0.90;;
65230;SDS011;51813;40.666;16.602;2024-02-26T02:27:32;1.50;;;0.80;;
65230;SDS011;51813;40.666;16.602;2024-02-26T02:29:58;1.42;;;0.70;;
65230;SDS011;51813;40.666;16.602;2024-02-26T02:32:24;1.60;;;0.88;;
65230;SDS011;51813;40.666;16.602;2024-02-26T02:34:51;1.60;;;0.90;;
65230;SDS011;51813;40.666;16.602;2024-02-26T02:37:17;1.65;;;1.02;;
65230;SDS011;51813;40.666;16.602;2024-02-26T02:39:43;1.70;;;1.10;;
65230;SDS011;51813;40.666;16.602;2024-02-26T02:42:09;2.25;;;1.10;;
65230;SDS011;51813;40.666;16.602;2024-02-26T02:44:35;2.55;;;1.50;;
65230;SDS011;51813;40.666;16.602;2024-02-26T02:47:01;3.45;;;2.10;;
65230;SDS011;51813;40.666;16.602;2024-02-26T02:49:27;2.90;;;1.73;;
65230;SDS011;51813;40.666;16.602;2024-02-26T02:51:52;3.22;;;2.00;;
65230;SDS011;51813;40.666;16.602;2024-02-26T02:54:19;1.70;;;0.85;;
65230;SDS011;51813;40.666;16.602;2024-02-26T02:56:45;3.25;;;2.00;;
65230;SDS011;51813;40.666;16.602;2024-02-26T02:59:11;3.08;;;2.10;;
65230;SDS011;51813;40.666;16.602;2024-02-26T03:01:36;3.58;;;2.22;;
65230;SDS011;51813;40.666;16.602;2024-02-26T03:04:02;2.78;;;1.80;;
65230;SDS011;51813;40.666;16.602;2024-02-26T03:06:28;3.78;;;2.13;;
65230;SDS011;51813;40.666;16.602;2024-02-26T03:08:54;3.05;;;1.80;;
65230;SDS011;51813;40.666;16.602;2024-02-26T03:11:20;3.00;;;1.85;;
65230;SDS011;51813;40.666;16.602;2024-02-26T03:13:45;2.70;;;1.60;;
65230;SDS011;51813;40.666;16.602;2024-02-26T03:16:11;3.38;;;1.67;;
65230;SDS011;51813;40.666;16.602;2024-02-26T03:18:39;4.22;;;2.92;;
65230;SDS011;51813;40.666;16.602;2024-02-26T03:21:05;4.93;;;3.10;;
65230;SDS011;51813;40.666;16.602;2024-02-26T03:23:31;5.05;;;3.45;;
65230;SDS011;51813;40.666;16.602;2024-02-26T03:26:01;4.07;;;2.30;;
65230;SDS011;51813;40.666;16.602;2024-02-26T03:28:28;3.80;;;2.10;;
65230;SDS011;51813;40.666;16.602;2024-02-26T03:30:54;3.08;;;1.70;;
65230;SDS011;51813;40.666;16.602;2024-02-26T03:33:20;2.63;;;1.35;;
65230;SDS011;51813;40.666;16.602;2024-02-26T03:35:45;2.75;;;1.20;;
65230;SDS011;51813;40.666;16.602;2024-02-26T03:38:11;2.30;;;1.20;;
65230;SDS011;51813;40.666;16.602;2024-02-26T03:40:38;2.85;;;1.00;;
65230;SDS011;51813;40.666;16.602;2024-02-26T03:43:04;1.38;;;0.90;;
65230;SDS011;51813;40.666;16.602;2024-02-26T03:45:32;1.95;;;1.15;;
65230;SDS011;51813;40.666;16.602;2024-02-26T03:47:58;1.92;;;0.93;;
65230;SDS011;51813;40.666;16.602;2024-02-26T03:50:23;2.83;;;1.27;;
65230;SDS011;51813;40.666;16.602;2024-02-26T03:52:49;1.98;;;1.00;;
65230;SDS011;51813;40.666;16.602;2024-02-26T03:55:15;2.30;;;1.30;;
65230;SDS011;51813;40.666;16.602;2024-02-26T03:57:43;1.40;;;0.73;;
65230;SDS011;51813;40.666;16.602;2024-02-26T04:00:09;1.75;;;0.95;;
65230;SDS011;51813;40.666;16.602;2024-02-26T04:02:35;1.55;;;0.80;;
65230;SDS011;51813;40.666;16.602;2024-02-26T04:05:00;1.70;;;0.75;;
65230;SDS011;51813;40.666;16.602;2024-02-26T04:07:26;1.80;;;0.93;;
65230;SDS011;51813;40.666;16.602;2024-02-26T04:09:52;1.42;;;0.80;;
65230;SDS011;51813;40.666;16.602;2024-02-26T04:12:17;1.55;;;0.73;;
65230;SDS011;51813;40.666;16.602;2024-02-26T04:14:43;1.77;;;0.70;;
65230;SDS011;51813;40.666;16.602;2024-02-26T04:17:09;1.77;;;0.70;;
65230;SDS011;51813;40.666;16.602;2024-02-26T04:19:36;1.48;;;0.80;;
65230;SDS011;51813;40.666;16.602;2024-02-26T04:22:01;1.70;;;0.95;;
65230;SDS011;51813;40.666;16.602;2024-02-26T04:24:27;1.27;;;0.70;;
65230;SDS011;51813;40.666;16.602;2024-02-26T04:26:53;1.45;;;0.90;;
65230;SDS011;51813;40.666;16.602;2024-02-26T04:29:18;1.52;;;0.80;;
65230;SDS011;51813;40.666;16.602;2024-02-26T04:31:44;2.40;;;0.93;;
65230;SDS011;51813;40.666;16.602;2024-02-26T04:34:11;1.70;;;0.90;;
65230;SDS011;51813;40.666;16.602;2024-02-26T04:36:37;1.55;;;0.75;;
65230;SDS011;51813;40.666;16.602;2024-02-26T04:39:03;2.30;;;1.00;;
65230;SDS011;51813;40.666;16.602;2024-02-26T04:41:28;1.45;;;0.93;;
65230;SDS011;51813;40.666;16.602;2024-02-26T04:43:54;1.58;;;0.80;;
65230;SDS011;51813;40.666;16.602;2024-02-26T04:46:20;2.28;;;1.10;;
65230;SDS011;51813;40.666;16.602;2024-02-26T04:48:47;2.10;;;1.00;;
65230;SDS011;51813;40.666;16.602;2024-02-26T04:51:12;1.58;;;0.85;;
65230;SDS011;51813;40.666;16.602;2024-02-26T04:53:38;1.90;;;1.05;;
65230;SDS011;51813;40.666;16.602;2024-02-26T04:56:04;1.92;;;0.93;;
65230;SDS011;51813;40.666;16.602;2024-02-26T04:58:30;3.33;;;1.60;;
65230;SDS011;51813;40.666;16.602;2024-02-26T05:00:55;1.35;;;0.80;;
65230;SDS011;51813;40.666;16.602;2024-02-26T05:03:21;2.53;;;1.00;;
65230;SDS011;51813;40.666;16.602;2024-02-26T05:05:47;1.17;;;0.70;;
65230;SDS011;51813;40.666;16.602;2024-02-26T05:08:12;2.90;;;1.20;;
65230;SDS011;51813;40.666;16.602;2024-02-26T05:10:38;2.13;;;1.00;;
65230;SDS011;51813;40.666;16.602;2024-02-26T05:13:06;1.50;;;0.90;;
65230;SDS011;51813;40.666;16.602;2024-02-26T05:15:32;2.30;;;0.90;;
65230;SDS011;51813;40.666;16.602;2024-02-26T05:17:58;2.72;;;1.10;;
65230;SDS011;51813;40.666;16.602;2024-02-26T05:20:24;1.83;;;0.90;;
65230;SDS011;51813;40.666;16.602;2024-02-26T05:22:49;1.48;;;0.80;;
65230;SDS011;51813;40.666;16.602;2024-02-26T05:25:17;1.92;;;1.10;;
65230;SDS011;51813;40.666;16.602;2024-02-26T05:27:43;1.75;;;1.00;;
65230;SDS011;51813;40.666;16.602;2024-02-26T05:30:09;1.70;;;1.00;;
65230;SDS011;51813;40.666;16.602;2024-02-26T05:32:35;2.10;;;0.98;;
65230;SDS011;51813;40.666;16.602;2024-02-26T05:35:01;1.83;;;0.98;;
65230;SDS011;51813;40.666;16.602;2024-02-26T05:37:29;2.10;;;1.00;;
65230;SDS011;51813;40.666;16.602;2024-02-26T05:39:55;1.70;;;0.95;;
65230;SDS011;51813;40.666;16.602;2024-02-26T05:42:20;2.50;;;1.50;;
65230;SDS011;51813;40.666;16.602;2024-02-26T05:44:46;1.73;;;0.90;;
65230;SDS011;51813;40.666;16.602;2024-02-26T05:47:12;3.53;;;1.23;;
65230;SDS011;51813;40.666;16.602;2024-02-26T05:49:38;2.03;;;1.17;;
65230;SDS011;51813;40.666;16.602;2024-02-26T05:52:04;2.10;;;1.30;;
65230;SDS011;51813;40.666;16.602;2024-02-26T05:54:30;1.80;;;1.10;;
65230;SDS011;51813;40.666;16.602;2024-02-26T05:56:56;2.70;;;1.30;;
65230;SDS011;51813;40.666;16.602;2024-02-26T05:59:22;2.10;;;1.20;;
65230;SDS011;51813;40.666;16.602;2024-02-26T06:01:48;2.47;;;1.45;;
65230;SDS011;51813;40.666;16.602;2024-02-26T06:04:14;3.30;;;1.40;;
65230;SDS011;51813;40.666;16.602;2024-02-26T06:06:39;3.67;;;1.40;;
65230;SDS011;51813;40.666;16.602;2024-02-26T06:09:05;2.75;;;1.20;;
65230;SDS011;51813;40.666;16.602;2024-02-26T06:11:31;2.42;;;1.35;;
65230;SDS011;51813;40.666;16.602;2024-02-26T06:13:56;1.73;;;1.08;;
65230;SDS011;51813;40.666;16.602;2024-02-26T06:16:22;2.13;;;1.10;;
65230;SDS011;51813;40.666;16.602;2024-02-26T06:18:48;2.05;;;1.15;;
65230;SDS011;51813;40.666;16.602;2024-02-26T06:21:13;1.88;;;1.00;;
65230;SDS011;51813;40.666;16.602;2024-02-26T06:23:39;2.10;;;1.00;;
65230;SDS011;51813;40.666;16.602;2024-02-26T06:26:07;2.10;;;1.10;;
65230;SDS011;51813;40.666;16.602;2024-02-26T06:28:33;2.03;;;0.98;;
65230;SDS011;51813;40.666;16.602;2024-02-26T06:31:00;2.10;;;0.98;;
65230;SDS011;51813;40.666;16.602;2024-02-26T06:33:26;2.53;;;1.10;;
65230;SDS011;51813;40.666;16.602;2024-02-26T06:35:52;2.28;;;1.20;;
65230;SDS011;51813;40.666;16.602;2024-02-26T06:38:18;2.28;;;1.10;;
65230;SDS011;51813;40.666;16.602;2024-02-26T06:40:44;3.00;;;1.50;;
65230;SDS011;51813;40.666;16.602;2024-02-26T06:43:09;2.67;;;1.48;;
65230;SDS011;51813;40.666;16.602;2024-02-26T06:45:35;3.63;;;1.67;;
65230;SDS011;51813;40.666;16.602;2024-02-26T06:48:01;2.88;;;1.30;;
65230;SDS011;51813;40.666;16.602;2024-02-26T06:50:27;4.15;;;2.20;;
65230;SDS011;51813;40.666;16.602;2024-02-26T06:52:53;3.45;;;1.73;;
65230;SDS011;51813;40.666;16.602;2024-02-26T06:55:19;3.80;;;1.80;;
65230;SDS011;51813;40.666;16.602;2024-02-26T06:57:44;4.05;;;2.00;;
65230;SDS011;51813;40.666;16.602;2024-02-26T07:00:10;2.78;;;1.58;;
65230;SDS011;51813;40.666;16.602;2024-02-26T07:02:39;2.67;;;1.33;;
65230;SDS011;51813;40.666;16.602;2024-02-26T07:05:05;2.70;;;1.65;;
65230;SDS011;51813;40.666;16.602;2024-02-26T07:07:32;3.65;;;1.80;;
65230;SDS011;51813;40.666;16.602;2024-02-26T07:09:57;3.70;;;2.00;;
65230;SDS011;51813;40.666;16.602;2024-02-26T07:12:23;2.33;;;1.58;;
65230;SDS011;51813;40.666;16.602;2024-02-26T07:14:49;2.83;;;1.38;;
65230;SDS011;51813;40.666;16.602;2024-02-26T07:17:15;2.65;;;1.40;;
65230;SDS011;51813;40.666;16.602;2024-02-26T07:19:42;2.20;;;1.40;;
65230;SDS011;51813;40.666;16.602;2024-02-26T07:22:07;3.17;;;1.20;;
65230;SDS011;51813;40.666;16.602;2024-02-26T07:24:33;2.75;;;1.48;;
65230;SDS011;51813;40.666;16.602;2024-02-26T07:26:59;2.67;;;1.50;;
65230;SDS011;51813;40.666;16.602;2024-02-26T07:29:24;2.78;;;1.63;;
65230;SDS011;51813;40.666;16.602;2024-02-26T07:31:50;3.20;;;1.70;;
65230;SDS011;51813;40.666;16.602;2024-02-26T07:34:16;2.63;;;1.65;;
65230;SDS011;51813;40.666;16.602;2024-02-26T07:36:42;3.50;;;1.80;;
65230;SDS011;51813;40.666;16.602;2024-02-26T07:39:07;3.10;;;1.48;;
65230;SDS011;51813;40.666;16.602;2024-02-26T07:41:33;3.55;;;1.75;;
65230;SDS011;51813;40.666;16.602;2024-02-26T07:43:59;4.88;;;1.80;;
65230;SDS011;51813;40.666;16.602;2024-02-26T07:46:25;3.75;;;1.70;;
65230;SDS011;51813;40.666;16.602;2024-02-26T07:48:50;2.47;;;1.48;;
65230;SDS011;51813;40.666;16.602;2024-02-26T07:51:16;3.28;;;1.80;;
65230;SDS011;51813;40.666;16.602;2024-02-26T07:53:42;3.90;;;1.75;;
65230;SDS011;51813;40.666;16.602;2024-02-26T07:56:08;4.65;;;1.70;;
65230;SDS011;51813;40.666;16.602;2024-02-26T07:58:34;3.13;;;1.73;;
65230;SDS011;51813;40.666;16.602;2024-02-26T08:01:00;4.80;;;1.73;;
65230;SDS011;51813;40.666;16.602;2024-02-26T08:03:26;3.75;;;1.77;;
65230;SDS011;51813;40.666;16.602;2024-02-26T08:05:51;2.75;;;1.33;;
65230;SDS011;51813;40.666;16.602;2024-02-26T08:08:17;3.45;;;1.55;;
65230;SDS011;51813;40.666;16.602;2024-02-26T08:10:43;2.75;;;1.50;;
65230;SDS011;51813;40.666;16.602;2024-02-26T08:13:09;3.60;;;1.35;;
65230;SDS011;51813;40.666;16.602;2024-02-26T08:15:35;3.42;;;1.30;;
65230;SDS011;51813;40.666;16.602;2024-02-26T08:18:02;4.28;;;1.27;;
65230;SDS011;51813;40.666;16.602;2024-02-26T08:20:29;2.72;;;1.50;;
65230;SDS011;51813;40.666;16.602;2024-02-26T08:22:55;3.05;;;1.60;;
65230;SDS011;51813;40.666;16.602;2024-02-26T08:25:21;5.15;;;1.20;;
65230;SDS011;51813;40.666;16.602;2024-02-26T08:27:47;2.78;;;1.50;;
65230;SDS011;51813;40.666;16.602;2024-02-26T08:30:14;3.15;;;1.30;;
65230;SDS011;51813;40.666;16.602;2024-02-26T08:32:42;2.60;;;1.45;;
65230;SDS011;51813;40.666;16.602;2024-02-26T08:35:09;2.53;;;1.23;;
65230;SDS011;51813;40.666;16.602;2024-02-26T08:37:34;2.28;;;1.25;;
65230;SDS011;51813;40.666;16.602;2024-02-26T08:40:00;4.10;;;1.50;;
65230;SDS011;51813;40.666;16.602;2024-02-26T08:42:26;2.95;;;1.13;;
65230;SDS011;51813;40.666;16.602;2024-02-26T08:44:51;2.70;;;1.38;;
65230;SDS011;51813;40.666;16.602;2024-02-26T08:47:19;2.35;;;1.10;;
65230;SDS011;51813;40.666;16.602;2024-02-26T08:49:45;2.20;;;1.25;;
65230;SDS011;51813;40.666;16.602;2024-02-26T08:52:11;2.28;;;1.20;;
65230;SDS011;51813;40.666;16.602;2024-02-26T08:54:36;2.85;;;1.10;;
65230;SDS011;51813;40.666;16.602;2024-02-26T08:57:02;2.63;;;1.15;;
65230;SDS011;51813;40.666;16.602;2024-02-26T08:59:28;2.38;;;1.20;;
65230;SDS011;51813;40.666;16.602;2024-02-26T09:01:54;2.63;;;1.30;;
65230;SDS011;51813;40.666;16.602;2024-02-26T09:04:20;2.85;;;1.30;;
65230;SDS011;51813;40.666;16.602;2024-02-26T09:06:46;2.35;;;1.08;;
65230;SDS011;51813;40.666;16.602;2024-02-26T09:09:12;2.78;;;1.05;;
65230;SDS011;51813;40.666;16.602;2024-02-26T09:11:37;2.75;;;1.38;;
65230;SDS011;51813;40.666;16.602;2024-02-26T09:14:03;2.63;;;1.35;;
65230;SDS011;51813;40.666;16.602;2024-02-26T09:16:29;2.92;;;1.25;;
65230;SDS011;51813;40.666;16.602;2024-02-26T09:18:55;3.97;;;1.63;;
65230;SDS011;51813;40.666;16.602;2024-02-26T09:21:21;2.55;;;1.52;;
65230;SDS011;51813;40.666;16.602;2024-02-26T09:23:51;2.58;;;1.25;;
65230;SDS011;51813;40.666;16.602;2024-02-26T09:26:17;3.03;;;1.40;;
65230;SDS011;51813;40.666;16.602;2024-02-26T09:28:43;4.00;;;1.40;;
65230;SDS011;51813;40.666;16.602;2024-02-26T09:31:09;4.90;;;2.10;;
65230;SDS011;51813;40.666;16.602;2024-02-26T09:33:35;4.15;;;1.70;;
65230;SDS011;51813;40.666;16.602;2024-02-26T09:36:01;3.25;;;1.50;;
65230;SDS011;51813;40.666;16.602;2024-02-26T09:38:27;3.30;;;1.50;;
65230;SDS011;51813;40.666;16.602;2024-02-26T09:40:54;3.33;;;1.63;;
65230;SDS011;51813;40.666;16.602;2024-02-26T09:43:22;2.53;;;1.20;;
65230;SDS011;51813;40.666;16.602;2024-02-26T09:45:52;3.80;;;1.80;;
65230;SDS011;51813;40.666;16.602;2024-02-26T09:48:18;3.72;;;1.40;;
65230;SDS011;51813;40.666;16.602;2024-02-26T09:50:45;3.83;;;1.42;;
65230;SDS011;51813;40.666;16.602;2024-02-26T09:53:12;2.22;;;1.17;;
65230;SDS011;51813;40.666;16.602;2024-02-26T09:55:39;2.90;;;1.23;;
65230;SDS011;51813;40.666;16.602;2024-02-26T09:58:05;3.97;;;1.42;;
65230;SDS011;51813;40.666;16.602;2024-02-26T10:00:32;3.45;;;1.30;;
65230;SDS011;51813;40.666;16.602;2024-02-26T10:03:06;2.28;;;1.45;;
65230;SDS011;51813;40.666;16.602;2024-02-26T10:05:38;2.67;;;1.25;;
65230;SDS011;51813;40.666;16.602;2024-02-26T10:08:05;1.80;;;1.00;;
65230;SDS011;51813;40.666;16.602;2024-02-26T10:10:33;2.78;;;1.27;;
65230;SDS011;51813;40.666;16.602;2024-02-26T10:12:59;2.47;;;1.38;;
65230;SDS011;51813;40.666;16.602;2024-02-26T10:15:26;8.38;;;1.33;;
65230;SDS011;51813;40.666;16.602;2024-02-26T10:17:52;2.25;;;1.17;;
65230;SDS011;51813;40.666;16.602;2024-02-26T10:20:18;2.42;;;1.38;;
65230;SDS011;51813;40.666;16.602;2024-02-26T10:22:46;2.75;;;1.50;;
65230;SDS011;51813;40.666;16.602;2024-02-26T10:25:12;7.43;;;3.58;;
65230;SDS011;51813;40.666;16.602;2024-02-26T10:27:41;6.90;;;3.17;;
65230;SDS011;51813;40.666;16.602;2024-02-26T10:30:17;5.32;;;3.20;;
65230;SDS011;51813;40.666;16.602;2024-02-26T10:32:47;7.05;;;4.03;;
65230;SDS011;51813;40.666;16.602;2024-02-26T10:35:14;7.47;;;3.97;;
65230;SDS011;51813;40.666;16.602;2024-02-26T10:37:41;5.85;;;3.13;;
65230;SDS011;51813;40.666;16.602;2024-02-26T10:40:10;5.18;;;3.70;;
65230;SDS011;51813;40.666;16.602;2024-02-26T10:42:37;6.10;;;2.47;;
65230;SDS011;51813;40.666;16.602;2024-02-26T10:45:04;5.78;;;2.90;;
65230;SDS011;51813;40.666;16.602;2024-02-26T10:47:37;6.47;;;2.92;;
65230;SDS011;51813;40.666;16.602;2024-02-26T10:50:03;5.57;;;2.72;;
65230;SDS011;51813;40.666;16.602;2024-02-26T10:52:34;6.40;;;2.72;;
65230;SDS011;51813;40.666;16.602;2024-02-26T10:55:02;5.03;;;2.63;;
65230;SDS011;51813;40.666;16.602;2024-02-26T10:57:39;5.35;;;2.63;;
65230;SDS011;51813;40.666;16.602;2024-02-26T11:00:06;4.88;;;2.83;;
65230;SDS011;51813;40.666;16.602;2024-02-26T11:02:35;4.15;;;2.40;;
65230;SDS011;51813;40.666;16.602;2024-02-26T11:05:02;4.47;;;2.20;;
65230;SDS011;51813;40.666;16.602;2024-02-26T11:07:31;4.15;;;1.75;;
65230;SDS011;51813;40.666;16.602;2024-02-26T11:10:00;4.22;;;2.25;;
65230;SDS011;51813;40.666;16.602;2024-02-26T11:12:34;3.60;;;1.90;;
65230;SDS011;51813;40.666;16.602;2024-02-26T11:15:03;5.07;;;2.17;;
65230;SDS011;51813;40.666;16.602;2024-02-26T11:17:29;3.58;;;1.80;;
65230;SDS011;51813;40.666;16.602;2024-02-26T11:19:56;4.70;;;1.92;;
65230;SDS011;51813;40.666;16.602;2024-02-26T11:22:26;3.00;;;1.67;;
65230;SDS011;51813;40.666;16.602;2024-02-26T11:24:55;3.53;;;1.63;;
65230;SDS011;51813;40.666;16.602;2024-02-26T11:27:36;2.85;;;1.90;;
65230;SDS011;51813;40.666;16.602;2024-02-26T11:30:08;3.83;;;1.70;;
65230;SDS011;51813;40.666;16.602;2024-02-26T11:32:36;3.38;;;2.08;;
65230;SDS011;51813;40.666;16.602;2024-02-26T11:35:02;3.83;;;1.50;;
65230;SDS011;51813;40.666;16.602;2024-02-26T11:37:30;3.97;;;1.45;;
65230;SDS011;51813;40.666;16.602;2024-02-26T11:39:58;3.15;;;1.55;;
65230;SDS011;51813;40.666;16.602;2024-02-26T11:42:26;2.85;;;1.35;;
65230;SDS011;51813;40.666;16.602;2024-02-26T11:44:51;3.40;;;1.50;;
65230;SDS011;51813;40.666;16.602;2024-02-26T11:47:21;3.03;;;1.30;;
65230;SDS011;51813;40.666;16.602;2024-02-26T11:49:47;4.23;;;1.63;;
65230;SDS011;51813;40.666;16.602;2024-02-26T11:52:14;2.70;;;1.42;;
65230;SDS011;51813;40.666;16.602;2024-02-26T11:54:50;2.92;;;1.30;;
65230;SDS011;51813;40.666;16.602;2024-02-26T12:00:15;2.55;;;1.20;;
65230;SDS011;51813;40.666;16.602;2024-02-26T12:02:47;3.17;;;1.30;;
65230;SDS011;51813;40.666;16.602;2024-02-26T12:07:48;2.30;;;1.50;;
65230;SDS011;51813;40.666;16.602;2024-02-26T12:10:41;2.92;;;1.45;;
65230;SDS011;51813;40.666;16.602;2024-02-26T12:13:15;3.95;;;1.70;;
65230;SDS011;51813;40.666;16.602;2024-02-26T12:18:21;2.60;;;1.35;;
65230;SDS011;51813;40.666;16.602;2024-02-26T12:20:57;3.15;;;1.52;;
65230;SDS011;51813;40.666;16.602;2024-02-26T12:23:27;2.50;;;1.20;;
65230;SDS011;51813;40.666;16.602;2024-02-26T12:25:53;2.28;;;1.27;;
65230;SDS011;51813;40.666;16.602;2024-02-26T12:28:27;3.77;;;1.40;;
65230;SDS011;51813;40.666;16.602;2024-02-26T12:30:55;2.10;;;1.20;;
65230;SDS011;51813;40.666;16.602;2024-02-26T12:33:24;3.22;;;1.30;;
65230;SDS011;51813;40.666;16.602;2024-02-26T12:35:51;2.25;;;1.25;;
65230;SDS011;51813;40.666;16.602;2024-02-26T12:38:18;2.10;;;1.40;;
65230;SDS011;51813;40.666;16.602;2024-02-26T12:40:44;2.47;;;1.08;;
65230;SDS011;51813;40.666;16.602;2024-02-26T12:43:10;2.38;;;1.10;;
65230;SDS011;51813;40.666;16.602;2024-02-26T12:45:40;2.30;;;1.10;;
65230;SDS011;51813;40.666;16.602;2024-02-26T12:48:06;2.60;;;1.00;;
65230;SDS011;51813;40.666;16.602;2024-02-26T12:50:32;2.88;;;1.30;;
65230;SDS011;51813;40.666;16.602;2024-02-26T12:52:59;3.03;;;1.20;;
65230;SDS011;51813;40.666;16.602;2024-02-26T12:55:25;2.33;;;1.10;;
65230;SDS011;51813;40.666;16.602;2024-02-26T12:57:52;2.33;;;1.35;;
65230;SDS011;51813;40.666;16.602;2024-02-26T13:00:18;4.53;;;1.10;;
65230;SDS011;51813;40.666;16.602;2024-02-26T13:02:47;2.93;;;1.13;;
65230;SDS011;51813;40.666;16.602;2024-02-26T13:05:14;2.28;;;1.00;;
65230;SDS011;51813;40.666;16.602;2024-02-26T13:07:41;2.72;;;1.00;;
65230;SDS011;51813;40.666;16.602;2024-02-26T13:10:08;2.50;;;1.10;;
65230;SDS011;51813;40.666;16.602;2024-02-26T13:12:36;2.25;;;1.00;;
65230;SDS011;51813;40.666;16.602;2024-02-26T13:15:18;1.85;;;1.10;;
65230;SDS011;51813;40.666;16.602;2024-02-26T13:17:45;4.18;;;1.10;;
65230;SDS011;51813;40.666;16.602;2024-02-26T13:20:12;2.20;;;1.10;;
65230;SDS011;51813;40.666;16.602;2024-02-26T13:22:40;3.88;;;1.10;;
65230;SDS011;51813;40.666;16.602;2024-02-26T13:25:05;2.40;;;1.00;;
65230;SDS011;51813;40.666;16.602;2024-02-26T13:27:32;2.70;;;1.10;;
65230;SDS011;51813;40.666;16.602;2024-02-26T13:30:11;2.00;;;1.30;;
65230;SDS011;51813;40.666;16.602;2024-02-26T13:32:38;2.40;;;1.35;;
65230;SDS011;51813;40.666;16.602;2024-02-26T13:35:08;2.38;;;1.10;;
65230;SDS011;51813;40.666;16.602;2024-02-26T13:37:35;1.93;;;0.90;;
65230;SDS011;51813;40.666;16.602;2024-02-26T13:40:04;2.13;;;0.90;;
65230;SDS011;51813;40.666;16.602;2024-02-26T13:42:34;1.85;;;0.90;;
65230;SDS011;51813;40.666;16.602;2024-02-26T13:45:00;3.60;;;1.10;;
65230;SDS011;51813;40.666;16.602;2024-02-26T13:47:26;3.90;;;1.10;;
65230;SDS011;51813;40.666;16.602;2024-02-26T13:49:52;2.20;;;0.98;;
65230;SDS011;51813;40.666;16.602;2024-02-26T13:52:18;2.00;;;1.00;;
65230;SDS011;51813;40.666;16.602;2024-02-26T13:54:45;1.75;;;0.90;;
65230;SDS011;51813;40.666;16.602;2024-02-26T13:57:11;1.50;;;0.82;;
65230;SDS011;51813;40.666;16.602;2024-02-26T13:59:37;4.28;;;0.90;;
65230;SDS011;51813;40.666;16.602;2024-02-26T14:02:06;2.45;;;0.77;;
65230;SDS011;51813;40.666;16.602;2024-02-26T14:04:32;2.50;;;1.00;;
65230;SDS011;51813;40.666;16.602;2024-02-26T14:06:58;2.08;;;0.80;;
65230;SDS011;51813;40.666;16.602;2024-02-26T14:09:23;2.70;;;0.75;;
65230;SDS011;51813;40.666;16.602;2024-02-26T14:11:49;1.90;;;0.80;;
65230;SDS011;51813;40.666;16.602;2024-02-26T14:14:15;2.00;;;1.00;;
65230;SDS011;51813;40.666;16.602;2024-02-26T14:16:40;3.55;;;1.02;;
65230;SDS011;51813;40.666;16.602;2024-02-26T14:19:06;2.80;;;0.70;;
65230;SDS011;51813;40.666;16.602;2024-02-26T14:21:31;3.03;;;1.00;;
65230;SDS011;51813;40.666;16.602;2024-02-26T14:23:57;2.03;;;0.82;;
65230;SDS011;51813;40.666;16.602;2024-02-26T14:26:23;3.33;;;0.90;;
65230;SDS011;51813;40.666;16.602;2024-02-26T14:28:48;0.95;;;0.70;;
65230;SDS011;51813;40.666;16.602;2024-02-26T14:31:17;1.60;;;0.80;;
65230;SDS011;51813;40.666;16.602;2024-02-26T14:33:43;2.00;;;0.70;;
65230;SDS011;51813;40.666;16.602;2024-02-26T14:36:09;1.55;;;0.85;;
65230;SDS011;51813;40.666;16.602;2024-02-26T14:38:35;2.45;;;0.90;;